Time;durP1;ratioP1;P1;durP2;ratioP2;P2;SDS_P1;SDS_P2;PMS_P1;PMS_P2;Temp;Humidity;BMP_temperature;BMP_pressure;BME280_temperature;BME280_humidity;BME280_pressure;Samples;Min_cycle;Max_cycle;Signal;HPM_P1;HPM_P2
2023/08/21 00:02:20;;;;;;;15.52;14.02;;;19.90;99.90;;;;;;5114813;28;20038;-75
2023/08/21 00:04:45;;;;;;;18.23;15.38;;;19.90;99.90;;;;;;5114823;28;20031;-75
2023/08/21 00:07:11;;;;;;;15.98;14.38;;;19.80;99.90;;;;;;5096638;28;20030;-75
2023/08/21 00:09:37;;;;;;;15.90;14.18;;;19.80;99.90;;;;;;5114722;28;20027;-75
2023/08/21 00:12:03;;;;;;;16.02;14.43;;;19.80;99.90;;;;;;5096539;28;20027;-75
2023/08/21 00:14:29;;;;;;;16.80;14.35;;;19.80;99.90;;;;;;5114284;28;20034;-75
2023/08/21 00:16:55;;;;;;;15.95;13.30;;;19.80;99.90;;;;;;5114268;28;20031;-75
2023/08/21 00:19:20;;;;;;;16.65;14.32;;;19.80;99.90;;;;;;5114226;28;20020;-75
2023/08/21 00:21:46;;;;;;;17.77;14.50;;;19.80;99.90;;;;;;5114750;28;20081;-75
2023/08/21 00:24:12;;;;;;;15.93;14.30;;;19.70;99.90;;;;;;5114562;28;20093;-75
2023/08/21 00:26:37;;;;;;;16.48;14.63;;;19.70;99.90;;;;;;5096463;28;20476;-74
2023/08/21 00:29:03;;;;;;;17.48;15.00;;;19.70;99.90;;;;;;5114975;28;20361;-76
2023/08/21 00:31:29;;;;;;;16.75;14.95;;;19.60;99.90;;;;;;5114366;28;20070;-75
2023/08/21 00:33:54;;;;;;;16.40;14.80;;;19.60;99.90;;;;;;5114954;28;20114;-75
2023/08/21 00:36:20;;;;;;;17.02;14.68;;;19.60;99.90;;;;;;5117916;28;20024;-76
2023/08/21 00:38:46;;;;;;;16.88;15.00;;;19.50;99.90;;;;;;5098946;28;20031;-75
2023/08/21 00:41:12;;;;;;;17.17;15.23;;;19.50;99.90;;;;;;5115256;28;20112;-75
2023/08/21 00:43:37;;;;;;;16.63;14.85;;;19.50;99.90;;;;;;5114253;28;20153;-75
2023/08/21 00:46:03;;;;;;;16.63;14.93;;;19.40;99.90;;;;;;5114584;28;20111;-75
2023/08/21 00:48:29;;;;;;;16.23;14.52;;;19.40;99.90;;;;;;5095786;28;20080;-75
2023/08/21 00:50:55;;;;;;;16.75;15.05;;;19.40;99.90;;;;;;5093517;28;20110;-75
2023/08/21 00:53:21;;;;;;;16.33;14.57;;;19.40;99.90;;;;;;5097702;28;20036;-75
2023/08/21 00:55:47;;;;;;;17.08;15.27;;;19.40;99.90;;;;;;5098071;28;20035;-75
2023/08/21 00:58:13;;;;;;;16.45;14.63;;;19.30;99.90;;;;;;5098007;28;20024;-75
2023/08/21 01:00:41;;;;;;;17.63;14.63;;;19.30;99.90;;;;;;5098048;28;20354;-75
2023/08/21 01:03:08;;;;;;;17.40;15.45;;;19.30;99.90;;;;;;5097881;28;20028;-75
2023/08/21 01:05:35;;;;;;;20.48;14.75;;;19.30;99.90;;;;;;5097611;28;20027;-76
2023/08/21 01:08:11;;;;;;;16.35;14.57;;;19.30;99.90;;;;;;5097856;28;20082;-75
2023/08/21 01:10:50;;;;;;;18.85;15.25;;;19.30;99.90;;;;;;5097683;28;20541;-75
2023/08/21 01:13:45;;;;;;;16.23;14.57;;;19.30;99.90;;;;;;5096617;28;20118;-75
2023/08/21 01:16:13;;;;;;;16.85;15.13;;;19.30;99.90;;;;;;5089036;28;20047;-75
2023/08/21 01:18:39;;;;;;;17.77;15.98;;;19.20;99.90;;;;;;5096516;28;20028;-75
2023/08/21 01:21:05;;;;;;;16.88;15.00;;;19.20;99.90;;;;;;5097238;28;20028;-75
2023/08/21 01:23:35;;;;;;;16.95;14.60;;;19.20;99.90;;;;;;5097622;28;20043;-75
2023/08/21 01:26:01;;;;;;;16.75;14.93;;;19.20;99.90;;;;;;5096086;28;20103;-75
2023/08/21 01:28:27;;;;;;;17.92;15.88;;;19.10;99.90;;;;;;5097183;28;20111;-75
2023/08/21 01:31:01;;;;;;;19.00;15.70;;;19.10;99.90;;;;;;5096080;28;20101;-76
2023/08/21 01:33:29;;;;;;;17.63;15.65;;;19.10;99.90;;;;;;5097508;28;20534;-75
2023/08/21 01:35:55;;;;;;;17.17;15.32;;;19.00;99.90;;;;;;5097405;28;20063;-75
2023/08/21 01:38:22;;;;;;;19.55;16.50;;;19.00;99.90;;;;;;5096056;28;20035;-75
2023/08/21 01:40:47;;;;;;;17.77;15.88;;;19.00;99.90;;;;;;5097112;28;20020;-75
2023/08/21 01:43:13;;;;;;;17.08;15.38;;;19.00;99.90;;;;;;5097307;28;20030;-75
2023/08/21 01:45:38;;;;;;;17.88;15.40;;;19.00;99.90;;;;;;5097138;28;20024;-75
2023/08/21 01:48:04;;;;;;;16.98;15.35;;;18.90;99.90;;;;;;5097089;28;20031;-75
2023/08/21 01:50:30;;;;;;;18.08;15.50;;;18.90;99.90;;;;;;5095600;28;20532;-75
2023/08/21 01:52:56;;;;;;;17.33;14.90;;;18.90;99.90;;;;;;5096276;28;20024;-75
2023/08/21 01:55:22;;;;;;;17.33;15.48;;;;;;;;;;5100186;28;20060;-75
2023/08/21 01:57:48;;;;;;;18.15;15.93;;;18.80;99.90;;;;;;5100705;28;20079;-74
2023/08/21 02:00:14;;;;;;;17.77;15.77;;;18.80;99.90;;;;;;5100117;28;20025;-75
2023/08/21 02:02:39;;;;;;;20.42;16.67;;;18.80;99.90;;;;;;5096117;28;20465;-75
2023/08/21 02:05:05;;;;;;;20.52;15.88;;;18.80;99.90;;;;;;5095767;28;20020;-74
2023/08/21 02:07:31;;;;;;;18.27;16.20;;;18.80;99.90;;;;;;5097159;28;20457;-75
2023/08/21 02:09:56;;;;;;;19.40;16.45;;;18.70;99.90;;;;;;5096866;28;20137;-74
2023/08/21 02:12:22;;;;;;;20.33;16.58;;;18.60;99.90;;;;;;5096400;28;20054;-75
2023/08/21 02:14:48;;;;;;;18.63;16.70;;;18.70;99.90;;;;;;5096703;28;20377;-74
2023/08/21 02:17:14;;;;;;;18.20;16.25;;;18.60;99.90;;;;;;5096535;28;20086;-75
2023/08/21 02:19:39;;;;;;;17.75;15.95;;;18.60;99.90;;;;;;5096446;28;20476;-75
2023/08/21 02:22:05;;;;;;;18.40;16.52;;;18.60;99.90;;;;;;5096833;28;20024;-74
2023/08/21 02:24:31;;;;;;;20.75;15.88;;;18.60;99.90;;;;;;5096317;28;20030;-74
2023/08/21 02:26:56;;;;;;;19.98;16.45;;;18.60;99.90;;;;;;5096332;28;20028;-74
2023/08/21 02:29:22;;;;;;;18.90;16.98;;;18.60;99.90;;;;;;5096051;28;20107;-74
2023/08/21 02:31:47;;;;;;;18.27;16.17;;;18.60;99.90;;;;;;5096265;28;20024;-74
2023/08/21 02:34:13;;;;;;;18.75;16.85;;;18.50;99.90;;;;;;5094878;28;20115;-74
2023/08/21 02:36:39;;;;;;;17.92;16.17;;;18.50;99.90;;;;;;5095127;28;20020;-75
2023/08/21 02:39:05;;;;;;;18.38;16.48;;;18.50;99.90;;;;;;5094780;28;20028;-75
2023/08/21 02:41:30;;;;;;;19.40;16.10;;;18.50;99.90;;;;;;5096123;28;20114;-75
2023/08/21 02:43:56;;;;;;;18.70;16.77;;;18.50;99.90;;;;;;5094905;28;20512;-75
2023/08/21 02:46:22;;;;;;;19.90;16.25;;;18.50;99.90;;;;;;5094770;28;20119;-75
2023/08/21 02:48:47;;;;;;;23.40;16.27;;;18.50;99.90;;;;;;5097167;28;20024;-74
2023/08/21 02:51:13;;;;;;;20.45;16.75;;;18.50;99.90;;;;;;5116307;28;20050;-74
2023/08/21 02:53:39;;;;;;;19.15;15.95;;;18.50;99.90;;;;;;5115829;28;20472;-75
2023/08/21 02:56:04;;;;;;;19.20;16.02;;;18.50;99.90;;;;;;5116451;28;20488;-74
2023/08/21 02:58:30;;;;;;;20.88;17.27;;;18.50;99.90;;;;;;5116399;28;20031;-74
2023/08/21 03:00:56;;;;;;;18.23;16.23;;;18.50;99.90;;;;;;5116025;28;20193;-75
2023/08/21 03:03:21;;;;;;;18.45;15.98;;;18.50;99.90;;;;;;5097817;28;20369;-74
2023/08/21 03:05:47;;;;;;;17.75;15.80;;;18.50;99.90;;;;;;5115763;28;20380;-74
2023/08/21 03:08:13;;;;;;;19.02;17.05;;;18.50;99.90;;;;;;5097617;28;20482;-74
2023/08/21 03:10:39;;;;;;;22.38;16.65;;;18.40;99.90;;;;;;5115733;28;20124;-74
2023/08/21 03:13:04;;;;;;;18.20;16.00;;;18.40;99.90;;;;;;5115382;28;20506;-75
2023/08/21 03:15:30;;;;;;;19.10;16.63;;;18.40;99.90;;;;;;5115474;28;20101;-74
2023/08/21 03:17:56;;;;;;;19.45;16.20;;;18.40;99.90;;;;;;5097365;28;20024;-74
2023/08/21 03:20:22;;;;;;;19.52;17.52;;;18.30;99.90;;;;;;5097335;28;20114;-74
2023/08/21 03:22:47;;;;;;;19.67;16.80;;;18.30;99.90;;;;;;5116163;28;20438;-75
2023/08/21 03:25:13;;;;;;;18.90;16.58;;;18.40;99.90;;;;;;5115636;28;20032;-74
2023/08/21 03:27:39;;;;;;;19.35;16.90;;;18.40;99.90;;;;;;5115221;28;20028;-74
2023/08/21 03:30:07;;;;;;;19.45;16.23;;;18.40;99.90;;;;;;5115563;28;20098;-75
2023/08/21 03:32:33;;;;;;;20.85;15.52;;;18.30;99.90;;;;;;5115878;28;20024;-75
2023/08/21 03:34:58;;;;;;;18.52;16.58;;;18.30;99.90;;;;;;5116872;28;20034;-74
2023/08/21 03:37:24;;;;;;;20.83;16.98;;;18.30;99.90;;;;;;5117415;28;20380;-75
2023/08/21 03:39:50;;;;;;;19.88;17.17;;;18.30;99.90;;;;;;5117113;28;20396;-75
2023/08/21 03:42:15;;;;;;;19.25;17.25;;;18.30;99.90;;;;;;5098742;28;20057;-75
2023/08/21 03:44:41;;;;;;;17.88;16.08;;;18.30;99.90;;;;;;5097022;28;20122;-75
2023/08/21 03:47:07;;;;;;;17.85;16.05;;;18.30;99.90;;;;;;5114975;28;20104;-75
2023/08/21 03:49:33;;;;;;;20.52;17.13;;;18.20;99.90;;;;;;5114670;28;20070;-75
2023/08/21 03:51:58;;;;;;;19.80;16.92;;;18.20;99.90;;;;;;5115454;28;20020;-75
2023/08/21 03:54:24;;;;;;;19.95;17.88;;;18.20;99.90;;;;;;5116875;28;20350;-77
2023/08/21 03:56:50;;;;;;;23.88;17.67;;;18.20;99.90;;;;;;5101607;28;20469;-76
2023/08/21 03:59:15;;;;;;;20.80;17.67;;;18.20;99.90;;;;;;5101215;28;20057;-75
2023/08/21 04:01:41;;;;;;;19.40;16.75;;;18.20;99.90;;;;;;5117946;28;20024;-74
2023/08/21 04:04:06;;;;;;;18.90;16.90;;;18.20;99.90;;;;;;5096808;28;20040;-74
2023/08/21 04:06:32;;;;;;;19.63;17.63;;;18.20;99.90;;;;;;5114840;28;20023;-74
2023/08/21 04:08:58;;;;;;;22.63;17.30;;;18.20;99.90;;;;;;5096444;28;20019;-75
2023/08/21 04:11:23;;;;;;;19.05;17.08;;;18.20;99.90;;;;;;5097142;28;20023;-75
2023/08/21 04:13:49;;;;;;;20.58;16.45;;;18.20;99.90;;;;;;5096458;28;20027;-74
2023/08/21 04:16:15;;;;;;;20.08;17.48;;;18.20;99.90;;;;;;5114634;28;20028;-76
2023/08/21 04:18:41;;;;;;;18.92;16.92;;;18.20;99.90;;;;;;5114695;28;20031;-75
2023/08/21 04:21:07;;;;;;;26.85;16.95;;;18.20;99.90;;;;;;5096718;28;20020;-74
2023/08/21 04:23:33;;;;;;;25.63;18.27;;;18.20;99.90;;;;;;5115292;28;20106;-75
2023/08/21 04:26:04;;;;;;;18.83;16.83;;;18.20;99.90;;;;;;5113945;28;20026;-75
2023/08/21 04:28:33;;;;;;;17.98;16.08;;;18.30;99.90;;;;;;5114530;28;20457;-74
2023/08/21 04:30:59;;;;;;;;;;;18.30;99.90;;;;;;5115118;28;20027;-76
2023/08/21 04:33:28;;;;;;;16.88;15.13;;;18.30;99.90;;;;;;5113984;28;20269;-75
2023/08/21 04:35:54;;;;;;;17.63;15.57;;;18.40;99.90;;;;;;5095869;28;20023;-75
2023/08/21 04:38:19;;;;;;;24.45;15.73;;;18.40;99.90;;;;;;5096253;28;20026;-75
2023/08/21 04:40:45;;;;;;;18.33;16.13;;;18.40;99.90;;;;;;5114356;28;20019;-75
2023/08/21 04:43:11;;;;;;;17.75;14.82;;;18.40;99.90;;;;;;5096282;28;20063;-75
2023/08/21 04:45:37;;;;;;;17.33;15.07;;;18.50;99.90;;;;;;5096117;28;20459;-75
2023/08/21 04:48:04;;;;;;;17.90;15.27;;;18.50;99.90;;;;;;5114645;28;20023;-75
2023/08/21 04:50:30;;;;;;;17.00;15.18;;;18.50;99.90;;;;;;5114176;28;20054;-68
2023/08/21 04:52:56;;;;;;;22.45;15.60;;;18.50;99.90;;;;;;5114012;28;20158;-68
2023/08/21 04:55:22;;;;;;;16.73;15.02;;;18.60;99.90;;;;;;5113976;28;20055;-76
2023/08/21 04:57:47;;;;;;;21.85;14.65;;;18.70;99.90;;;;;;5096222;28;20068;-79
2023/08/21 05:00:14;;;;;;;17.35;15.32;;;18.70;99.90;;;;;;5096849;28;20027;-77
2023/08/21 05:02:40;;;;;;;18.02;14.75;;;18.70;99.90;;;;;;5096417;28;20051;-78
2023/08/21 05:05:06;;;;;;;15.82;14.23;;;18.80;99.90;;;;;;5114131;28;20019;-59
2023/08/21 05:07:32;;;;;;;15.23;13.70;;;18.80;99.90;;;;;;5113929;28;20069;-59
2023/08/21 05:10:01;;;;;;;17.85;14.10;;;18.80;99.90;;;;;;5095725;28;20081;-60
2023/08/21 05:12:27;;;;;;;20.42;14.38;;;18.90;99.90;;;;;;5114109;28;20024;-59
2023/08/21 05:14:53;;;;;;;17.40;13.80;;;18.90;99.90;;;;;;5113792;28;20028;-60
2023/08/21 05:17:19;;;;;;;15.00;13.50;;;18.90;99.90;;;;;;5095707;28;20468;-59
2023/08/21 05:19:44;;;;;;;15.07;12.65;;;18.90;99.90;;;;;;5095601;28;20465;-59
2023/08/21 05:22:10;;;;;;;18.27;14.20;;;19.00;99.90;;;;;;5114165;28;20024;-60
2023/08/21 05:24:35;;;;;;;14.95;12.80;;;19.00;99.90;;;;;;5113742;28;20027;-60
2023/08/21 05:27:01;;;;;;;14.07;12.75;;;19.00;99.90;;;;;;5114004;28;20372;-59
2023/08/21 05:29:27;;;;;;;15.57;13.98;;;19.10;99.90;;;;;;5113495;28;20042;-59
2023/08/21 05:31:52;;;;;;;15.00;13.50;;;19.10;99.90;;;;;;5095450;28;20020;-59
2023/08/21 05:34:18;;;;;;;16.05;13.57;;;19.10;99.90;;;;;;5113325;28;20027;-60
2023/08/21 05:36:43;;;;;;;16.00;13.15;;;19.20;99.90;;;;;;5113710;28;20043;-59
2023/08/21 05:39:09;;;;;;;18.55;12.82;;;19.20;99.90;;;;;;5117504;28;20081;-60
2023/08/21 05:41:35;;;;;;;17.38;14.93;;;19.30;99.90;;;;;;5099255;28;20028;-60
2023/08/21 05:44:00;;;;;;;14.63;12.73;;;19.30;99.90;;;;;;5117592;28;20088;-60
2023/08/21 05:46:26;;;;;;;16.75;13.25;;;19.40;99.90;;;;;;5099035;28;20024;-59
2023/08/21 05:48:52;;;;;;;15.43;13.25;;;19.50;99.90;;;;;;5099519;28;20028;-60
2023/08/21 05:51:17;;;;;;;16.30;12.43;;;19.50;99.90;;;;;;5118328;28;20096;-59
2023/08/21 05:53:43;;;;;;;15.93;13.07;;;19.50;99.90;;;;;;5117248;28;20032;-59
2023/08/21 05:56:09;;;;;;;18.42;13.18;;;19.50;99.90;;;;;;5098926;28;20434;-59
2023/08/21 05:58:34;;;;;;;16.80;13.15;;;19.50;99.90;;;;;;5116890;28;20020;-59
2023/08/21 06:01:00;;;;;;;13.63;12.23;;;19.60;99.90;;;;;;5072398;28;20029;-60
2023/08/21 06:03:26;;;;;;;20.52;13.25;;;19.60;99.90;;;;;;5058914;28;20024;-59
2023/08/21 06:05:51;;;;;;;16.38;12.30;;;19.70;99.90;;;;;;5076412;28;20028;-60
2023/08/21 06:08:18;;;;;;;15.02;12.48;;;19.70;99.90;;;;;;5076381;28;20028;-70
2023/08/21 06:10:44;;;;;;;16.52;12.23;;;19.80;99.90;;;;;;5058346;28;20040;-71
2023/08/21 06:13:09;;;;;;;14.07;12.57;;;19.90;99.90;;;;;;5076496;28;20035;-71
2023/08/21 06:15:35;;;;;;;13.82;11.30;;;19.90;99.90;;;;;;5059122;28;20377;-71
2023/08/21 06:18:01;;;;;;;13.75;11.20;;;20.00;99.90;;;;;;5059594;28;20031;-70
2023/08/21 06:20:27;;;;;;;16.17;12.55;;;20.20;99.90;;;;;;5077463;28;20036;-70
2023/08/21 06:22:52;;;;;;;13.35;11.93;;;20.20;99.90;;;;;;5077037;28;20060;-70
2023/08/21 06:25:19;;;;;;;19.58;12.77;;;20.40;99.90;;;;;;5076475;28;20025;-70
2023/08/21 06:27:45;;;;;;;14.55;10.98;;;20.70;99.90;;;;;;5076435;28;20024;-70
2023/08/21 06:30:11;;;;;;;12.48;10.60;;;20.90;99.90;;;;;;5075696;28;20020;-67
2023/08/21 06:32:36;;;;;;;14.30;11.88;;;20.90;99.90;;;;;;5075713;28;20051;-71
2023/08/21 06:35:02;;;;;;;11.98;10.82;;;20.90;99.90;;;;;;5058058;28;20029;-68
2023/08/21 06:37:28;;;;;;;13.57;10.85;;;21.00;99.90;;;;;;5057934;28;20059;-67
2023/08/21 06:39:53;;;;;;;12.27;10.27;;;21.20;99.90;;;;;;5075759;28;20024;-68
2023/08/21 06:42:19;;;;;;;11.30;10.15;;;21.60;99.90;;;;;;5057755;28;20119;-68
2023/08/21 06:44:45;;;;;;;11.10;10.10;;;21.90;99.90;;;;;;5058314;28;20119;-67
2023/08/21 06:47:10;;;;;;;12.15;10.20;;;22.00;99.90;;;;;;5057831;28;20029;-68
2023/08/21 06:49:36;;;;;;;14.60;10.73;;;22.20;99.90;;;;;;5074754;28;20444;-63
2023/08/21 06:52:03;;;;;;;10.60;9.50;;;22.40;99.90;;;;;;5057592;28;20528;-63
2023/08/21 06:54:29;;;;;;;10.15;9.15;;;23.10;99.90;;;;;;5075235;28;20082;-64
2023/08/21 06:56:54;;;;;;;10.80;9.20;;;23.60;99.90;;;;;;5057102;28;20028;-61
2023/08/21 06:59:20;;;;;;;11.20;8.98;;;24.40;99.90;;;;;;5057382;28;20382;-61
2023/08/21 07:01:46;;;;;;;10.93;8.43;;;25.10;99.90;;;;;;5057338;28;20020;-63
2023/08/21 07:04:11;;;;;;;9.63;8.45;;;25.60;99.90;;;;;;5075284;28;20032;-63
2023/08/21 07:06:37;;;;;;;8.82;7.68;;;26.00;99.90;;;;;;5075281;28;20032;-64
2023/08/21 07:09:03;;;;;;;10.90;8.35;;;26.60;99.90;;;;;;5075133;28;20086;-64
2023/08/21 07:11:28;;;;;;;8.75;7.95;;;27.20;99.90;;;;;;5075001;28;20059;-63
2023/08/21 07:13:54;;;;;;;10.45;8.43;;;27.40;99.90;;;;;;5075141;28;20036;-64
2023/08/21 07:16:20;;;;;;;8.68;7.80;;;27.60;99.90;;;;;;5075119;28;20031;-64
2023/08/21 07:18:45;;;;;;;8.40;7.47;;;27.80;99.90;;;;;;5074977;28;20465;-64
2023/08/21 07:21:11;;;;;;;8.63;7.03;;;28.30;99.90;;;;;;5074926;28;20112;-63
2023/08/21 07:23:37;;;;;;;9.10;7.38;;;28.60;99.90;;;;;;5074874;28;20040;-64
2023/08/21 07:26:04;;;;;;;7.90;7.05;;;28.80;99.90;;;;;;5074649;28;20029;-64
2023/08/21 07:28:30;;;;;;;10.65;7.20;;;29.20;99.90;;;;;;5074842;28;20020;-64
2023/08/21 07:31:00;;;;;;;7.18;6.57;;;29.50;99.90;;;;;;5074762;28;20024;-66
2023/08/21 07:33:26;;;;;;;7.07;6.38;;;30.00;99.80;;;;;;5056786;28;20025;-67
2023/08/21 07:36:05;;;;;;;11.65;7.05;;;30.10;98.90;;;;;;5075091;28;20036;-63
2023/08/21 07:38:31;;;;;;;9.82;6.88;;;30.30;97.70;;;;;;5056996;28;20055;-74
2023/08/21 07:41:09;;;;;;;7.25;6.38;;;30.60;99.50;;;;;;5077340;28;20506;-74
2023/08/21 07:43:36;;;;;;;7.30;6.60;;;31.20;96.50;;;;;;5065050;28;20029;-75
2023/08/21 07:46:05;;;;;;;6.68;5.85;;;32.50;94.70;;;;;;5081586;28;20031;-75
2023/08/21 07:48:32;;;;;;;6.35;5.65;;;34.30;91.50;;;;;;5080873;28;20025;-75
2023/08/21 07:50:57;;;;;;;6.40;5.80;;;35.20;87.60;;;;;;5056664;28;20052;-75
2023/08/21 07:53:24;;;;;;;6.38;5.78;;;35.80;82.10;;;;;;5074668;28;20040;-76
2023/08/21 07:55:50;;;;;;;6.35;5.82;;;36.10;78.80;;;;;;5056566;28;20037;-77
2023/08/21 07:58:16;;;;;;;6.10;5.28;;;36.20;76.90;;;;;;5056726;28;20466;-78
2023/08/21 08:00:42;;;;;;;6.00;5.32;;;36.00;78.00;;;;;;5055843;28;20488;-78
2023/08/21 08:03:08;;;;;;;8.73;5.53;;;36.10;75.80;;;;;;5074798;28;20028;-76
2023/08/21 08:05:34;;;;;;;6.55;5.85;;;36.20;75.30;;;;;;5074499;28;20024;-75
2023/08/21 08:08:00;;;;;;;6.05;5.32;;;36.10;74.70;;;;;;5056943;28;20026;-76
2023/08/21 08:10:25;;;;;;;5.40;4.88;;;36.50;73.00;;;;;;5074347;28;20470;-75
2023/08/21 08:12:51;;;;;;;5.38;4.97;;;36.60;72.60;;;;;;5056160;28;20469;-76
2023/08/21 08:15:18;;;;;;;6.13;5.45;;;36.80;72.60;;;;;;5056424;28;20128;-75
2023/08/21 08:17:45;;;;;;;9.60;6.00;;;36.90;70.50;;;;;;5073958;28;20523;-76
2023/08/21 08:20:11;;;;;;;6.20;5.60;;;36.80;69.70;;;;;;5074194;28;20450;-76
2023/08/21 08:22:37;;;;;;;6.28;5.28;;;37.00;67.60;;;;;;5074291;28;20036;-76
2023/08/21 08:25:05;;;;;;;5.63;5.13;;;37.10;64.90;;;;;;5074246;28;20029;-76
2023/08/21 08:27:32;;;;;;;10.85;5.13;;;37.30;64.70;;;;;;5074491;28;20107;-76
2023/08/21 08:29:58;;;;;;;5.28;4.75;;;37.80;64.50;;;;;;5056669;28;20024;-78
2023/08/21 08:32:23;;;;;;;7.75;5.30;;;37.80;62.20;;;;;;5075348;28;20025;-77
2023/08/21 08:34:49;;;;;;;5.22;4.82;;;37.90;60.90;;;;;;5075314;28;20055;-77
2023/08/21 08:37:14;;;;;;;6.20;4.93;;;37.80;60.20;;;;;;5081097;28;20035;-80
2023/08/21 08:39:40;;;;;;;5.47;5.07;;;37.80;60.60;;;;;;5065932;28;20025;-76
2023/08/21 08:42:07;;;;;;;5.25;4.75;;;38.40;59.50;;;;;;5083013;28;20122;-78
2023/08/21 08:44:36;;;;;;;5.57;5.18;;;38.20;59.30;;;;;;5083712;28;20484;-76
2023/08/21 08:47:03;;;;;;;7.63;4.82;;;38.40;58.40;;;;;;5063944;28;20020;-77
2023/08/21 08:49:31;;;;;;;5.38;4.88;;;38.40;58.40;;;;;;5079103;28;20052;-78
2023/08/21 08:51:57;;;;;;;5.87;5.17;;;38.60;58.20;;;;;;5076424;28;20028;-80
2023/08/21 08:54:25;;;;;;;5.68;5.18;;;38.80;57.40;;;;;;5074634;28;20086;-78
2023/08/21 08:56:51;;;;;;;6.70;4.57;;;38.60;57.30;;;;;;5074568;28;20032;-77
2023/08/21 08:59:17;;;;;;;5.18;4.68;;;38.70;57.40;;;;;;5074444;28;20071;-78
2023/08/21 09:01:43;;;;;;;5.57;5.18;;;38.90;56.30;;;;;;5075035;28;20028;-78
2023/08/21 09:04:09;;;;;;;5.65;5.18;;;39.10;55.70;;;;;;5056957;28;20478;-80
2023/08/21 09:06:36;;;;;;;5.53;5.03;;;39.10;55.50;;;;;;5075404;28;20047;-79
2023/08/21 09:09:02;;;;;;;6.93;4.97;;;39.40;56.00;;;;;;5057448;28;20024;-77
2023/08/21 09:11:27;;;;;;;6.30;5.20;;;39.50;54.10;;;;;;5078777;28;20104;-80
2023/08/21 09:13:54;;;;;;;5.75;4.80;;;39.50;55.00;;;;;;5069793;28;20055;-78
2023/08/21 09:16:21;;;;;;;5.10;4.70;;;40.00;54.10;;;;;;5083954;28;20095;-78
2023/08/21 09:18:51;;;;;;;4.90;4.47;;;40.70;52.70;;;;;;5085173;28;20039;-80
2023/08/21 09:21:18;;;;;;;5.35;4.55;;;40.90;50.90;;;;;;5087912;28;20084;-79
2023/08/21 09:23:45;;;;;;;5.10;4.70;;;40.20;51.60;;;;;;5087342;28;20062;-80
2023/08/21 09:26:19;;;;;;;4.85;4.40;;;40.50;51.30;;;;;;5086581;28;20020;-79
2023/08/21 09:28:45;;;;;;;7.50;4.30;;;40.20;50.30;;;;;;5083999;28;20017;-79
2023/08/21 09:31:10;;;;;;;4.30;4.00;;;40.20;49.30;;;;;;5061388;28;20462;-78
2023/08/21 09:33:36;;;;;;;4.10;3.80;;;40.40;47.90;;;;;;5082537;28;20032;-79
2023/08/21 09:36:06;;;;;;;3.72;3.53;;;41.00;48.10;;;;;;5081723;28;20036;-78
2023/08/21 09:38:35;;;;;;;5.13;4.07;;;41.30;46.60;;;;;;5081690;28;20025;-80
2023/08/21 09:41:00;;;;;;;4.57;4.18;;;40.90;46.00;;;;;;5088557;28;20060;-80
2023/08/21 09:43:26;;;;;;;4.93;4.10;;;40.80;45.80;;;;;;5089630;28;20094;-78
2023/08/21 09:45:55;;;;;;;4.25;3.83;;;40.80;46.10;;;;;;5066696;28;20036;-80
2023/08/21 09:48:29;;;;;;;5.68;4.20;;;41.00;46.20;;;;;;5089981;28;20025;-79
2023/08/21 09:50:55;;;;;;;4.63;4.18;;;41.30;45.80;;;;;;5093839;28;20040;-80
2023/08/21 09:53:22;;;;;;;4.07;3.85;;;41.50;45.70;;;;;;5089940;28;20028;-80
2023/08/21 09:55:52;;;;;;;6.80;4.43;;;41.50;44.80;;;;;;5080267;28;20082;-79
2023/08/21 09:58:19;;;;;;;4.25;3.97;;;41.20;45.10;;;;;;5061658;28;20461;-79
2023/08/21 10:00:48;;;;;;;7.05;4.18;;;41.30;44.60;;;;;;5082809;28;20031;-79
2023/08/21 10:03:17;;;;;;;5.45;4.65;;;41.90;43.60;;;;;;5087840;28;20029;-79
2023/08/21 10:05:43;;;;;;;5.50;4.60;;;41.70;43.90;;;;;;5088026;28;20059;-78
2023/08/21 10:08:09;;;;;;;4.90;4.38;;;41.70;45.10;;;;;;5070333;28;20033;-78
2023/08/21 10:10:38;;;;;;;5.57;4.68;;;41.70;44.30;;;;;;5070118;28;20020;-79
2023/08/21 10:13:06;;;;;;;5.65;4.63;;;41.60;44.40;;;;;;5085916;28;20549;-78
2023/08/21 10:15:33;;;;;;;;;;;42.20;44.60;;;;;;5066412;28;20028;-78
2023/08/21 10:18:25;;;;;;;5.57;4.90;;;42.20;45.00;;;;;;5065421;28;19940;-79
2023/08/21 10:20:52;;;;;;;6.38;5.38;;;41.70;44.40;;;;;;5080867;28;20029;-79
2023/08/21 10:23:30;;;;;;;5.90;4.67;;;41.80;43.60;;;;;;5060562;28;20033;-78
2023/08/21 10:26:00;;;;;;;4.93;4.43;;;41.70;43.10;;;;;;5066343;28;20025;-81
2023/08/21 10:28:49;;;;;;;6.00;3.97;;;41.80;44.00;;;;;;5086072;28;20021;-78
2023/08/21 10:31:28;;;;;;;5.00;4.50;;;42.30;43.10;;;;;;5083850;28;20027;-79
2023/08/21 10:33:54;;;;;;;4.82;4.43;;;41.90;43.00;;;;;;5064263;28;20123;-79
2023/08/21 10:36:39;;;;;;;5.60;4.75;;;41.90;43.30;;;;;;5060052;28;20485;-79
2023/08/21 10:39:31;;;;;;;4.32;3.92;;;42.50;42.10;;;;;;5082476;28;20021;-79
2023/08/21 10:42:00;;;;;;;8.18;4.78;;;42.30;41.70;;;;;;5080496;28;20024;-79
2023/08/21 10:44:58;;;;;;;9.68;4.40;;;42.30;40.90;;;;;;5077579;28;20033;-78
2023/08/21 10:47:27;;;;;;;4.43;4.13;;;42.20;41.80;;;;;;5058995;28;20458;-76
2023/08/21 10:49:56;;;;;;;4.80;4.22;;;42.30;41.70;;;;;;5076811;28;20071;-77
2023/08/21 10:52:35;;;;;;;4.63;4.25;;;42.80;40.80;;;;;;5058543;28;20033;-77
2023/08/21 10:55:03;;;;;;;5.13;4.18;;;42.60;40.00;;;;;;5059502;28;20423;-78
2023/08/21 10:57:31;;;;;;;5.05;4.00;;;42.30;40.60;;;;;;5076485;28;20064;-76
2023/08/21 11:00:09;;;;;;;5.00;4.53;;;42.80;40.00;;;;;;5059507;28;20024;-78
2023/08/21 11:02:35;;;;;;;;;;;42.50;40.60;;;;;;5080019;28;20029;-79
2023/08/21 11:05:02;;;;;;;8.18;5.78;;;42.50;40.50;;;;;;5080385;28;19904;-79
2023/08/21 11:07:28;;;;;;;5.13;4.63;;;42.50;40.80;;;;;;5078246;28;20020;-79
2023/08/21 11:09:54;;;;;;;6.82;4.93;;;42.90;41.20;;;;;;5059144;28;20025;-81
2023/08/21 11:12:21;;;;;;;6.25;4.72;;;42.70;40.60;;;;;;5058791;28;20029;-78
2023/08/21 11:14:48;;;;;;;6.00;4.93;;;42.80;41.00;;;;;;5076168;28;20060;-79
2023/08/21 11:17:14;;;;;;;8.18;5.00;;;42.90;41.40;;;;;;5058576;28;20076;-79
2023/08/21 11:19:41;;;;;;;4.85;4.45;;;43.00;40.10;;;;;;5058438;28;20492;-80
2023/08/21 11:22:06;;;;;;;5.38;4.85;;;43.30;40.90;;;;;;5076277;28;20535;-76
2023/08/21 11:24:45;;;;;;;7.25;5.00;;;43.60;40.70;;;;;;5058018;28;20033;-76
2023/08/21 11:27:16;;;;;;;6.57;4.97;;;43.10;39.70;;;;;;5076344;28;20056;-78
2023/08/21 11:29:43;;;;;;;5.40;4.78;;;42.80;40.30;;;;;;5076941;28;20032;-79
2023/08/21 11:32:14;;;;;;;5.00;4.60;;;43.00;40.10;;;;;;5059430;28;20029;-78
2023/08/21 11:34:42;;;;;;;5.90;5.07;;;43.60;40.10;;;;;;5076827;28;20516;-82
2023/08/21 11:37:07;;;;;;;6.75;4.63;;;43.40;39.80;;;;;;5059598;28;20040;-81
2023/08/21 11:39:51;;;;;;;5.22;4.72;;;43.40;38.90;;;;;;5080551;28;20028;-80
2023/08/21 11:42:19;;;;;;;5.47;4.25;;;43.10;38.20;;;;;;5082190;28;20029;-81
2023/08/21 11:44:47;;;;;;;5.18;4.57;;;43.00;38.20;;;;;;5058681;28;20078;-80
2023/08/21 11:47:14;;;;;;;5.82;4.70;;;42.80;39.20;;;;;;5061409;28;20090;-80
2023/08/21 11:49:44;;;;;;;6.95;5.10;;;42.90;38.70;;;;;;5077209;28;20048;-80
2023/08/21 11:52:11;;;;;;;5.68;5.18;;;43.10;39.50;;;;;;5078419;28;20020;-79
2023/08/21 11:54:40;;;;;;;5.03;4.63;;;43.20;38.80;;;;;;5082521;28;20028;-80
2023/08/21 11:57:12;;;;;;;5.38;4.47;;;43.30;39.00;;;;;;5064877;28;20046;-80
2023/08/21 11:59:39;;;;;;;6.90;4.57;;;43.90;38.70;;;;;;5064614;28;20032;-80
2023/08/21 12:02:16;;;;;;;4.57;4.22;;;44.00;37.70;;;;;;5081160;28;20035;-80
2023/08/21 12:04:42;;;;;;;;;;;43.30;38.30;;;;;;5082128;28;20028;-79
2023/08/21 12:07:07;;;;;;;4.13;3.83;;;43.20;37.70;;;;;;5067482;28;19999;-82
2023/08/21 12:09:33;;;;;;;4.40;4.00;;;42.80;37.70;;;;;;5081808;28;20089;-81
2023/08/21 12:11:59;;;;;;;4.95;3.80;;;42.90;38.00;;;;;;5064372;28;20029;-79
2023/08/21 12:14:25;;;;;;;4.70;3.30;;;41.90;37.20;;;;;;5058387;28;20029;-79
2023/08/21 12:16:51;;;;;;;3.58;3.28;;;42.70;35.80;;;;;;5058274;28;20067;-81
2023/08/21 12:19:16;;;;;;;5.68;3.80;;;42.60;36.80;;;;;;5059239;28;20035;-81
2023/08/21 12:21:42;;;;;;;5.70;3.90;;;42.50;36.90;;;;;;5058045;28;20474;-80
2023/08/21 12:24:08;;;;;;;3.80;3.40;;;42.90;36.60;;;;;;5076052;28;20035;-79
2023/08/21 12:26:34;;;;;;;5.07;3.78;;;43.40;36.20;;;;;;5075326;28;20378;-81
2023/08/21 12:29:01;;;;;;;4.95;3.50;;;42.90;36.30;;;;;;5056718;28;20027;-79
2023/08/21 12:31:27;;;;;;;4.55;4.20;;;42.90;36.80;;;;;;5074459;28;20036;-80
2023/08/21 12:33:52;;;;;;;4.63;4.07;;;42.90;36.20;;;;;;5056806;28;20389;-81
2023/08/21 12:36:18;;;;;;;5.25;3.42;;;42.70;36.10;;;;;;5073951;28;20029;-80
2023/08/21 12:38:44;;;;;;;5.88;4.05;;;42.60;36.30;;;;;;5056061;28;20030;-79